sensor_id;sensor_type;location;lat;lon;timestamp;P1;durP1;ratioP1;P2;durP2;ratioP2
3587;SDS011;1808;53.596;9.972;2023-08-07T00:00:34;2.47;;;1.13;;
3587;SDS011;1808;53.596;9.972;2023-08-07T00:03:02;1.80;;;1.08;;
3587;SDS011;1808;53.596;9.972;2023-08-07T00:05:29;3.47;;;1.52;;
3587;SDS011;1808;53.596;9.972;2023-08-07T00:07:58;3.00;;;1.88;;
3587;SDS011;1808;53.596;9.972;2023-08-07T00:10:24;0.25;;;0.22;;
3587;SDS011;1808;53.596;9.972;2023-08-07T00:12:58;7.32;;;0.47;;
3587;SDS011;1808;53.596;9.972;2023-08-07T00:15:27;0.35;;;0.35;;
3587;SDS011;1808;53.596;9.972;2023-08-07T00:17:54;3.10;;;1.45;;
3587;SDS011;1808;53.596;9.972;2023-08-07T00:20:22;0.45;;;0.45;;
3587;SDS011;1808;53.596;9.972;2023-08-07T00:22:48;2.10;;;1.30;;
3587;SDS011;1808;53.596;9.972;2023-08-07T00:25:18;1.30;;;0.85;;
3587;SDS011;1808;53.596;9.972;2023-08-07T00:27:47;1.60;;;0.93;;
3587;SDS011;1808;53.596;9.972;2023-08-07T00:30:14;0.75;;;0.65;;
3587;SDS011;1808;53.596;9.972;2023-08-07T00:32:41;3.33;;;1.98;;
3587;SDS011;1808;53.596;9.972;2023-08-07T00:35:08;2.38;;;1.30;;
3587;SDS011;1808;53.596;9.972;2023-08-07T00:37:34;0.20;;;0.17;;
3587;SDS011;1808;53.596;9.972;2023-08-07T00:40:01;0.70;;;0.65;;
3587;SDS011;1808;53.596;9.972;2023-08-07T00:42:30;9.18;;;0.88;;
3587;SDS011;1808;53.596;9.972;2023-08-07T00:44:56;6.07;;;1.50;;
3587;SDS011;1808;53.596;9.972;2023-08-07T00:47:28;2.92;;;1.33;;
3587;SDS011;1808;53.596;9.972;2023-08-07T00:49:55;0.65;;;0.55;;
3587;SDS011;1808;53.596;9.972;2023-08-07T00:52:22;0.10;;;0.10;;
3587;SDS011;1808;53.596;9.972;2023-08-07T00:54:48;3.90;;;1.23;;
3587;SDS011;1808;53.596;9.972;2023-08-07T00:57:14;2.22;;;1.13;;
3587;SDS011;1808;53.596;9.972;2023-08-07T00:59:41;0.63;;;0.52;;
3587;SDS011;1808;53.596;9.972;2023-08-07T01:02:09;7.97;;;1.38;;
3587;SDS011;1808;53.596;9.972;2023-08-07T01:04:38;0.25;;;0.25;;
3587;SDS011;1808;53.596;9.972;2023-08-07T01:07:05;1.75;;;1.00;;
3587;SDS011;1808;53.596;9.972;2023-08-07T01:09:32;0.90;;;0.60;;
3587;SDS011;1808;53.596;9.972;2023-08-07T01:12:02;4.00;;;1.08;;
3587;SDS011;1808;53.596;9.972;2023-08-07T01:14:36;1.38;;;0.90;;
3587;SDS011;1808;53.596;9.972;2023-08-07T01:17:05;1.45;;;0.90;;
3587;SDS011;1808;53.596;9.972;2023-08-07T01:19:32;3.60;;;1.70;;
3587;SDS011;1808;53.596;9.972;2023-08-07T01:22:08;0.43;;;0.40;;
3587;SDS011;1808;53.596;9.972;2023-08-07T01:24:37;1.77;;;0.95;;
3587;SDS011;1808;53.596;9.972;2023-08-07T01:27:12;0.60;;;0.60;;
3587;SDS011;1808;53.596;9.972;2023-08-07T01:29:49;1.48;;;0.85;;
3587;SDS011;1808;53.596;9.972;2023-08-07T01:32:19;1.25;;;0.55;;
3587;SDS011;1808;53.596;9.972;2023-08-07T01:34:52;0.52;;;0.30;;
3587;SDS011;1808;53.596;9.972;2023-08-07T01:37:20;0.60;;;0.28;;
3587;SDS011;1808;53.596;9.972;2023-08-07T01:39:47;0.80;;;0.20;;
3587;SDS011;1808;53.596;9.972;2023-08-07T01:42:14;2.15;;;0.95;;
3587;SDS011;1808;53.596;9.972;2023-08-07T01:44:41;1.85;;;1.30;;
3587;SDS011;1808;53.596;9.972;2023-08-07T01:47:07;3.10;;;1.55;;
3587;SDS011;1808;53.596;9.972;2023-08-07T01:49:33;2.55;;;0.77;;
3587;SDS011;1808;53.596;9.972;2023-08-07T01:52:00;1.50;;;0.90;;
3587;SDS011;1808;53.596;9.972;2023-08-07T01:54:28;4.28;;;1.98;;
3587;SDS011;1808;53.596;9.972;2023-08-07T01:56:54;6.47;;;1.55;;
3587;SDS011;1808;53.596;9.972;2023-08-07T01:59:21;1.80;;;1.08;;
3587;SDS011;1808;53.596;9.972;2023-08-07T02:01:49;3.45;;;1.73;;
3587;SDS011;1808;53.596;9.972;2023-08-07T02:04:16;1.25;;;0.63;;
3587;SDS011;1808;53.596;9.972;2023-08-07T02:06:43;3.53;;;3.15;;
3587;SDS011;1808;53.596;9.972;2023-08-07T02:09:12;9.40;;;1.30;;
3587;SDS011;1808;53.596;9.972;2023-08-07T02:11:40;3.40;;;1.75;;
3587;SDS011;1808;53.596;9.972;2023-08-07T02:14:07;1.75;;;0.93;;
3587;SDS011;1808;53.596;9.972;2023-08-07T02:16:33;2.58;;;1.33;;
3587;SDS011;1808;53.596;9.972;2023-08-07T02:19:00;3.40;;;1.83;;
3587;SDS011;1808;53.596;9.972;2023-08-07T02:21:28;2.60;;;0.85;;
3587;SDS011;1808;53.596;9.972;2023-08-07T02:23:58;3.20;;;1.95;;
3587;SDS011;1808;53.596;9.972;2023-08-07T02:26:24;0.45;;;0.35;;
3587;SDS011;1808;53.596;9.972;2023-08-07T02:28:52;2.17;;;0.98;;
3587;SDS011;1808;53.596;9.972;2023-08-07T02:31:18;0.10;;;0.10;;
3587;SDS011;1808;53.596;9.972;2023-08-07T02:33:44;3.03;;;1.38;;
3587;SDS011;1808;53.596;9.972;2023-08-07T02:36:16;5.35;;;1.77;;
3587;SDS011;1808;53.596;9.972;2023-08-07T02:38:42;0.52;;;0.32;;
3587;SDS011;1808;53.596;9.972;2023-08-07T02:41:08;2.78;;;1.40;;
3587;SDS011;1808;53.596;9.972;2023-08-07T02:43:35;3.03;;;0.63;;
3587;SDS011;1808;53.596;9.972;2023-08-07T02:46:03;1.95;;;0.75;;
3587;SDS011;1808;53.596;9.972;2023-08-07T02:48:33;9.20;;;1.73;;
3587;SDS011;1808;53.596;9.972;2023-08-07T02:50:59;1.75;;;0.70;;
3587;SDS011;1808;53.596;9.972;2023-08-07T02:53:25;0.73;;;0.32;;
3587;SDS011;1808;53.596;9.972;2023-08-07T02:55:52;1.85;;;1.10;;
3587;SDS011;1808;53.596;9.972;2023-08-07T02:58:18;5.68;;;1.35;;
3587;SDS011;1808;53.596;9.972;2023-08-07T03:00:45;2.20;;;1.10;;
3587;SDS011;1808;53.596;9.972;2023-08-07T03:03:12;3.05;;;1.65;;
3587;SDS011;1808;53.596;9.972;2023-08-07T03:05:47;2.80;;;1.17;;
3587;SDS011;1808;53.596;9.972;2023-08-07T03:08:14;6.85;;;1.98;;
3587;SDS011;1808;53.596;9.972;2023-08-07T03:10:40;0.77;;;0.47;;
3587;SDS011;1808;53.596;9.972;2023-08-07T03:13:09;2.35;;;0.85;;
3587;SDS011;1808;53.596;9.972;2023-08-07T03:15:35;4.10;;;2.03;;
3587;SDS011;1808;53.596;9.972;2023-08-07T03:18:02;2.92;;;0.95;;
3587;SDS011;1808;53.596;9.972;2023-08-07T03:20:29;2.50;;;1.65;;
3587;SDS011;1808;53.596;9.972;2023-08-07T03:22:56;2.38;;;1.02;;
3587;SDS011;1808;53.596;9.972;2023-08-07T03:25:22;2.75;;;1.30;;
3587;SDS011;1808;53.596;9.972;2023-08-07T03:27:50;1.63;;;1.20;;
3587;SDS011;1808;53.596;9.972;2023-08-07T03:30:17;6.63;;;1.05;;
3587;SDS011;1808;53.596;9.972;2023-08-07T03:32:44;1.08;;;0.80;;
3587;SDS011;1808;53.596;9.972;2023-08-07T03:35:10;3.88;;;1.40;;
3587;SDS011;1808;53.596;9.972;2023-08-07T03:37:38;7.28;;;2.05;;
3587;SDS011;1808;53.596;9.972;2023-08-07T03:40:05;1.65;;;0.68;;
3587;SDS011;1808;53.596;9.972;2023-08-07T03:42:32;1.45;;;0.73;;
3587;SDS011;1808;53.596;9.972;2023-08-07T03:44:58;2.20;;;1.05;;
3587;SDS011;1808;53.596;9.972;2023-08-07T03:47:24;0.10;;;0.10;;
3587;SDS011;1808;53.596;9.972;2023-08-07T03:49:51;0.52;;;0.30;;
3587;SDS011;1808;53.596;9.972;2023-08-07T03:52:17;1.48;;;0.85;;
3587;SDS011;1808;53.596;9.972;2023-08-07T03:54:45;0.32;;;0.30;;
3587;SDS011;1808;53.596;9.972;2023-08-07T03:57:11;1.40;;;0.85;;
3587;SDS011;1808;53.596;9.972;2023-08-07T03:59:37;2.65;;;0.75;;
3587;SDS011;1808;53.596;9.972;2023-08-07T04:02:04;0.00;;;0.00;;
3587;SDS011;1808;53.596;9.972;2023-08-07T04:04:30;3.60;;;1.77;;
3587;SDS011;1808;53.596;9.972;2023-08-07T04:06:57;0.73;;;0.73;;
3587;SDS011;1808;53.596;9.972;2023-08-07T04:09:23;0.68;;;0.32;;
3587;SDS011;1808;53.596;9.972;2023-08-07T04:11:53;2.33;;;1.02;;
3587;SDS011;1808;53.596;9.972;2023-08-07T04:14:23;1.75;;;0.30;;
3587;SDS011;1808;53.596;9.972;2023-08-07T04:16:50;3.70;;;0.85;;
3587;SDS011;1808;53.596;9.972;2023-08-07T04:19:16;0.25;;;0.25;;
3587;SDS011;1808;53.596;9.972;2023-08-07T04:21:42;8.15;;;2.40;;
3587;SDS011;1808;53.596;9.972;2023-08-07T04:24:09;1.55;;;0.93;;
3587;SDS011;1808;53.596;9.972;2023-08-07T04:26:36;2.03;;;1.23;;
3587;SDS011;1808;53.596;9.972;2023-08-07T04:29:04;0.93;;;0.60;;
3587;SDS011;1808;53.596;9.972;2023-08-07T04:31:30;8.75;;;2.05;;
3587;SDS011;1808;53.596;9.972;2023-08-07T04:33:56;3.88;;;1.60;;
3587;SDS011;1808;53.596;9.972;2023-08-07T04:36:23;4.72;;;1.63;;
3587;SDS011;1808;53.596;9.972;2023-08-07T04:38:49;5.07;;;4.28;;
3587;SDS011;1808;53.596;9.972;2023-08-07T04:41:16;2.00;;;0.82;;
3587;SDS011;1808;53.596;9.972;2023-08-07T04:43:42;0.55;;;0.32;;
3587;SDS011;1808;53.596;9.972;2023-08-07T04:46:10;2.83;;;1.17;;
3587;SDS011;1808;53.596;9.972;2023-08-07T04:48:37;1.55;;;0.82;;
3587;SDS011;1808;53.596;9.972;2023-08-07T04:51:03;0.82;;;0.22;;
3587;SDS011;1808;53.596;9.972;2023-08-07T04:53:32;1.08;;;0.45;;
3587;SDS011;1808;53.596;9.972;2023-08-07T04:56:02;0.10;;;0.10;;
3587;SDS011;1808;53.596;9.972;2023-08-07T04:58:30;2.05;;;1.02;;
3587;SDS011;1808;53.596;9.972;2023-08-07T05:00:56;12.00;;;1.60;;
3587;SDS011;1808;53.596;9.972;2023-08-07T05:03:24;0.08;;;0.08;;
3587;SDS011;1808;53.596;9.972;2023-08-07T05:05:55;2.22;;;1.20;;
3587;SDS011;1808;53.596;9.972;2023-08-07T05:08:24;0.38;;;0.32;;
3587;SDS011;1808;53.596;9.972;2023-08-07T05:10:50;1.85;;;0.80;;
3587;SDS011;1808;53.596;9.972;2023-08-07T05:13:16;6.47;;;2.97;;
3587;SDS011;1808;53.596;9.972;2023-08-07T05:15:43;0.95;;;0.43;;
3587;SDS011;1808;53.596;9.972;2023-08-07T05:18:12;1.10;;;0.73;;
3587;SDS011;1808;53.596;9.972;2023-08-07T05:20:39;2.28;;;1.27;;
3587;SDS011;1808;53.596;9.972;2023-08-07T05:23:06;2.67;;;1.23;;
3587;SDS011;1808;53.596;9.972;2023-08-07T05:25:32;11.05;;;1.10;;
3587;SDS011;1808;53.596;9.972;2023-08-07T05:27:58;2.03;;;0.95;;
3587;SDS011;1808;53.596;9.972;2023-08-07T05:30:25;4.97;;;1.83;;
3587;SDS011;1808;53.596;9.972;2023-08-07T05:32:51;3.22;;;1.35;;
3587;SDS011;1808;53.596;9.972;2023-08-07T05:35:17;2.50;;;1.50;;
3587;SDS011;1808;53.596;9.972;2023-08-07T05:37:45;7.20;;;2.35;;
3587;SDS011;1808;53.596;9.972;2023-08-07T05:40:11;0.60;;;0.47;;
3587;SDS011;1808;53.596;9.972;2023-08-07T05:42:38;2.30;;;0.93;;
3587;SDS011;1808;53.596;9.972;2023-08-07T05:45:06;2.85;;;1.77;;
3587;SDS011;1808;53.596;9.972;2023-08-07T05:47:33;3.17;;;1.52;;
3587;SDS011;1808;53.596;9.972;2023-08-07T05:49:59;3.63;;;1.90;;
3587;SDS011;1808;53.596;9.972;2023-08-07T05:52:25;3.13;;;1.23;;
3587;SDS011;1808;53.596;9.972;2023-08-07T05:54:53;6.13;;;2.22;;
3587;SDS011;1808;53.596;9.972;2023-08-07T05:57:19;6.93;;;1.85;;
3587;SDS011;1808;53.596;9.972;2023-08-07T05:59:46;6.95;;;2.03;;
3587;SDS011;1808;53.596;9.972;2023-08-07T06:02:12;4.53;;;1.98;;
3587;SDS011;1808;53.596;9.972;2023-08-07T06:04:38;8.95;;;2.60;;
3587;SDS011;1808;53.596;9.972;2023-08-07T06:07:05;10.75;;;2.05;;
3587;SDS011;1808;53.596;9.972;2023-08-07T06:09:32;1.48;;;1.25;;
3587;SDS011;1808;53.596;9.972;2023-08-07T06:12:00;5.95;;;2.47;;
3587;SDS011;1808;53.596;9.972;2023-08-07T06:14:26;12.35;;;2.58;;
3587;SDS011;1808;53.596;9.972;2023-08-07T06:16:53;0.00;;;0.00;;
3587;SDS011;1808;53.596;9.972;2023-08-07T06:19:22;7.32;;;2.60;;
3587;SDS011;1808;53.596;9.972;2023-08-07T06:21:49;6.65;;;2.67;;
3587;SDS011;1808;53.596;9.972;2023-08-07T06:24:15;13.65;;;3.72;;
3587;SDS011;1808;53.596;9.972;2023-08-07T06:26:41;8.20;;;1.40;;
3587;SDS011;1808;53.596;9.972;2023-08-07T06:29:09;13.68;;;2.63;;
3587;SDS011;1808;53.596;9.972;2023-08-07T06:31:36;2.13;;;1.25;;
3587;SDS011;1808;53.596;9.972;2023-08-07T06:34:02;12.30;;;3.97;;
3587;SDS011;1808;53.596;9.972;2023-08-07T06:36:28;14.50;;;3.45;;
3587;SDS011;1808;53.596;9.972;2023-08-07T06:38:55;12.68;;;4.25;;
3587;SDS011;1808;53.596;9.972;2023-08-07T06:41:21;11.02;;;1.45;;
3587;SDS011;1808;53.596;9.972;2023-08-07T06:43:47;7.00;;;1.77;;
3587;SDS011;1808;53.596;9.972;2023-08-07T06:46:16;3.38;;;0.73;;
3587;SDS011;1808;53.596;9.972;2023-08-07T06:48:43;0.63;;;0.38;;
3587;SDS011;1808;53.596;9.972;2023-08-07T06:51:09;2.38;;;0.85;;
3587;SDS011;1808;53.596;9.972;2023-08-07T06:53:35;15.13;;;3.17;;
3587;SDS011;1808;53.596;9.972;2023-08-07T06:56:02;1.27;;;0.85;;
3587;SDS011;1808;53.596;9.972;2023-08-07T06:58:28;6.93;;;3.00;;
3587;SDS011;1808;53.596;9.972;2023-08-07T07:00:54;8.18;;;2.60;;
3587;SDS011;1808;53.596;9.972;2023-08-07T07:03:22;16.17;;;2.53;;
3587;SDS011;1808;53.596;9.972;2023-08-07T07:05:49;10.07;;;2.38;;
3587;SDS011;1808;53.596;9.972;2023-08-07T07:08:15;8.07;;;3.53;;
3587;SDS011;1808;53.596;9.972;2023-08-07T07:10:42;13.27;;;3.70;;
3587;SDS011;1808;53.596;9.972;2023-08-07T07:13:08;10.25;;;3.83;;
3587;SDS011;1808;53.596;9.972;2023-08-07T07:15:35;14.23;;;3.58;;
3587;SDS011;1808;53.596;9.972;2023-08-07T07:18:01;18.13;;;4.00;;
3587;SDS011;1808;53.596;9.972;2023-08-07T07:20:29;8.50;;;2.47;;
3587;SDS011;1808;53.596;9.972;2023-08-07T07:22:55;16.95;;;4.38;;
3587;SDS011;1808;53.596;9.972;2023-08-07T07:25:21;12.60;;;3.92;;
3587;SDS011;1808;53.596;9.972;2023-08-07T07:27:48;11.77;;;3.20;;
3587;SDS011;1808;53.596;9.972;2023-08-07T07:30:14;11.20;;;3.42;;
3587;SDS011;1808;53.596;9.972;2023-08-07T07:32:40;19.45;;;4.38;;
3587;SDS011;1808;53.596;9.972;2023-08-07T07:35:07;5.30;;;1.95;;
3587;SDS011;1808;53.596;9.972;2023-08-07T07:37:35;9.65;;;3.92;;
3587;SDS011;1808;53.596;9.972;2023-08-07T07:40:02;14.05;;;7.47;;
3587;SDS011;1808;53.596;9.972;2023-08-07T07:42:28;4.82;;;1.67;;
3587;SDS011;1808;53.596;9.972;2023-08-07T07:44:54;6.60;;;2.75;;
3587;SDS011;1808;53.596;9.972;2023-08-07T07:47:21;9.40;;;1.15;;
3587;SDS011;1808;53.596;9.972;2023-08-07T07:49:47;12.98;;;2.72;;
3587;SDS011;1808;53.596;9.972;2023-08-07T07:52:14;17.60;;;2.58;;
3587;SDS011;1808;53.596;9.972;2023-08-07T07:54:41;6.40;;;1.55;;
3587;SDS011;1808;53.596;9.972;2023-08-07T07:57:08;12.20;;;4.05;;
3587;SDS011;1808;53.596;9.972;2023-08-07T07:59:34;5.00;;;1.35;;
3587;SDS011;1808;53.596;9.972;2023-08-07T08:02:00;20.30;;;4.63;;
3587;SDS011;1808;53.596;9.972;2023-08-07T08:04:27;12.88;;;3.92;;
3587;SDS011;1808;53.596;9.972;2023-08-07T08:06:53;18.05;;;4.30;;
3587;SDS011;1808;53.596;9.972;2023-08-07T08:09:20;10.68;;;2.92;;
3587;SDS011;1808;53.596;9.972;2023-08-07T08:11:47;7.78;;;2.55;;
3587;SDS011;1808;53.596;9.972;2023-08-07T08:14:14;9.77;;;1.85;;
3587;SDS011;1808;53.596;9.972;2023-08-07T08:16:41;5.68;;;1.75;;
3587;SDS011;1808;53.596;9.972;2023-08-07T08:19:07;3.97;;;1.33;;
3587;SDS011;1808;53.596;9.972;2023-08-07T08:21:34;15.45;;;4.10;;
3587;SDS011;1808;53.596;9.972;2023-08-07T08:24:01;9.32;;;2.47;;
3587;SDS011;1808;53.596;9.972;2023-08-07T08:26:27;2.00;;;1.38;;
3587;SDS011;1808;53.596;9.972;2023-08-07T08:28:55;11.65;;;3.50;;
3587;SDS011;1808;53.596;9.972;2023-08-07T08:31:21;9.75;;;2.58;;
3587;SDS011;1808;53.596;9.972;2023-08-07T08:33:49;6.85;;;3.40;;
3587;SDS011;1808;53.596;9.972;2023-08-07T08:36:15;8.15;;;2.72;;
3587;SDS011;1808;53.596;9.972;2023-08-07T08:38:41;13.90;;;3.58;;
3587;SDS011;1808;53.596;9.972;2023-08-07T08:41:08;11.05;;;3.38;;
3587;SDS011;1808;53.596;9.972;2023-08-07T08:43:35;1.33;;;1.02;;
3587;SDS011;1808;53.596;9.972;2023-08-07T08:46:03;17.10;;;5.05;;
3587;SDS011;1808;53.596;9.972;2023-08-07T08:48:30;10.65;;;3.08;;
3587;SDS011;1808;53.596;9.972;2023-08-07T08:51:00;9.45;;;3.42;;
3587;SDS011;1808;53.596;9.972;2023-08-07T08:53:28;17.33;;;5.00;;
3587;SDS011;1808;53.596;9.972;2023-08-07T08:55:55;6.45;;;2.03;;
3587;SDS011;1808;53.596;9.972;2023-08-07T08:58:21;8.95;;;3.53;;
3587;SDS011;1808;53.596;9.972;2023-08-07T09:00:49;15.20;;;4.15;;
3587;SDS011;1808;53.596;9.972;2023-08-07T09:03:17;17.38;;;5.13;;
3587;SDS011;1808;53.596;9.972;2023-08-07T09:05:44;8.48;;;2.47;;
3587;SDS011;1808;53.596;9.972;2023-08-07T09:08:12;17.27;;;5.07;;
3587;SDS011;1808;53.596;9.972;2023-08-07T09:10:38;21.83;;;5.63;;
3587;SDS011;1808;53.596;9.972;2023-08-07T09:13:05;15.60;;;3.45;;
3587;SDS011;1808;53.596;9.972;2023-08-07T09:15:35;16.25;;;4.25;;
3587;SDS011;1808;53.596;9.972;2023-08-07T09:18:05;9.68;;;3.03;;
3587;SDS011;1808;53.596;9.972;2023-08-07T09:20:34;12.27;;;2.38;;
3587;SDS011;1808;53.596;9.972;2023-08-07T09:23:01;4.78;;;1.63;;
3587;SDS011;1808;53.596;9.972;2023-08-07T09:25:27;10.60;;;1.80;;
3587;SDS011;1808;53.596;9.972;2023-08-07T09:27:54;16.85;;;4.68;;
3587;SDS011;1808;53.596;9.972;2023-08-07T09:30:21;16.73;;;4.35;;
3587;SDS011;1808;53.596;9.972;2023-08-07T09:32:47;10.43;;;3.60;;
3587;SDS011;1808;53.596;9.972;2023-08-07T09:35:14;9.63;;;2.53;;
3587;SDS011;1808;53.596;9.972;2023-08-07T09:37:44;17.08;;;4.15;;
3587;SDS011;1808;53.596;9.972;2023-08-07T09:40:10;11.43;;;3.67;;
3587;SDS011;1808;53.596;9.972;2023-08-07T09:42:40;16.65;;;3.67;;
3587;SDS011;1808;53.596;9.972;2023-08-07T09:45:18;6.68;;;1.63;;
3587;SDS011;1808;53.596;9.972;2023-08-07T09:50:32;5.88;;;1.75;;
3587;SDS011;1808;53.596;9.972;2023-08-07T09:53:00;9.07;;;2.40;;
3587;SDS011;1808;53.596;9.972;2023-08-07T09:55:26;14.48;;;3.58;;
3587;SDS011;1808;53.596;9.972;2023-08-07T09:57:53;11.52;;;3.10;;
3587;SDS011;1808;53.596;9.972;2023-08-07T10:00:20;13.98;;;3.13;;
3587;SDS011;1808;53.596;9.972;2023-08-07T10:02:46;13.80;;;2.83;;
3587;SDS011;1808;53.596;9.972;2023-08-07T10:05:13;6.70;;;1.38;;
3587;SDS011;1808;53.596;9.972;2023-08-07T10:07:40;7.35;;;1.65;;
3587;SDS011;1808;53.596;9.972;2023-08-07T10:10:08;5.35;;;2.00;;
3587;SDS011;1808;53.596;9.972;2023-08-07T10:12:36;12.57;;;2.20;;
3587;SDS011;1808;53.596;9.972;2023-08-07T10:15:03;16.63;;;2.95;;
3587;SDS011;1808;53.596;9.972;2023-08-07T10:17:29;12.25;;;3.15;;
3587;SDS011;1808;53.596;9.972;2023-08-07T10:19:56;7.88;;;2.47;;
3587;SDS011;1808;53.596;9.972;2023-08-07T10:22:23;13.90;;;3.53;;
3587;SDS011;1808;53.596;9.972;2023-08-07T10:24:51;20.83;;;4.63;;
3587;SDS011;1808;53.596;9.972;2023-08-07T10:27:20;9.02;;;3.03;;
3587;SDS011;1808;53.596;9.972;2023-08-07T10:29:48;6.45;;;2.38;;
3587;SDS011;1808;53.596;9.972;2023-08-07T10:32:17;14.52;;;3.38;;
3587;SDS011;1808;53.596;9.972;2023-08-07T10:34:46;4.40;;;2.30;;
3587;SDS011;1808;53.596;9.972;2023-08-07T10:37:17;9.85;;;3.17;;
3587;SDS011;1808;53.596;9.972;2023-08-07T10:40:01;10.38;;;3.10;;
3587;SDS011;1808;53.596;9.972;2023-08-07T10:42:30;10.00;;;2.78;;
3587;SDS011;1808;53.596;9.972;2023-08-07T10:45:00;20.17;;;4.18;;
3587;SDS011;1808;53.596;9.972;2023-08-07T10:47:33;7.80;;;2.15;;
3587;SDS011;1808;53.596;9.972;2023-08-07T10:49:59;14.40;;;4.35;;
3587;SDS011;1808;53.596;9.972;2023-08-07T10:52:25;15.45;;;2.63;;
3587;SDS011;1808;53.596;9.972;2023-08-07T10:54:54;16.73;;;5.68;;
3587;SDS011;1808;53.596;9.972;2023-08-07T10:57:20;17.83;;;4.68;;
3587;SDS011;1808;53.596;9.972;2023-08-07T10:59:56;9.35;;;3.45;;
3587;SDS011;1808;53.596;9.972;2023-08-07T11:02:30;4.70;;;2.00;;
3587;SDS011;1808;53.596;9.972;2023-08-07T11:04:58;12.10;;;3.33;;
3587;SDS011;1808;53.596;9.972;2023-08-07T11:07:25;6.68;;;1.42;;
3587;SDS011;1808;53.596;9.972;2023-08-07T11:09:52;11.07;;;2.80;;
3587;SDS011;1808;53.596;9.972;2023-08-07T11:12:18;5.53;;;2.08;;
3587;SDS011;1808;53.596;9.972;2023-08-07T11:14:45;17.35;;;3.65;;
3587;SDS011;1808;53.596;9.972;2023-08-07T11:17:13;11.35;;;3.40;;
3587;SDS011;1808;53.596;9.972;2023-08-07T11:19:39;15.70;;;4.60;;
3587;SDS011;1808;53.596;9.972;2023-08-07T11:22:06;12.15;;;2.75;;
3587;SDS011;1808;53.596;9.972;2023-08-07T11:24:32;13.07;;;3.22;;
3587;SDS011;1808;53.596;9.972;2023-08-07T11:26:59;9.98;;;2.55;;
3587;SDS011;1808;53.596;9.972;2023-08-07T11:29:25;9.25;;;2.67;;
3587;SDS011;1808;53.596;9.972;2023-08-07T11:31:52;8.40;;;2.03;;
3587;SDS011;1808;53.596;9.972;2023-08-07T11:34:20;5.88;;;1.63;;
3587;SDS011;1808;53.596;9.972;2023-08-07T11:36:47;4.55;;;1.45;;
3587;SDS011;1808;53.596;9.972;2023-08-07T11:39:13;7.88;;;2.22;;
3587;SDS011;1808;53.596;9.972;2023-08-07T11:41:42;10.13;;;3.55;;
3587;SDS011;1808;53.596;9.972;2023-08-07T11:44:09;25.35;;;4.80;;
3587;SDS011;1808;53.596;9.972;2023-08-07T11:46:35;26.08;;;5.07;;
3587;SDS011;1808;53.596;9.972;2023-08-07T11:49:02;13.35;;;2.63;;
3587;SDS011;1808;53.596;9.972;2023-08-07T11:51:31;9.07;;;2.90;;
3587;SDS011;1808;53.596;9.972;2023-08-07T11:53:58;10.65;;;1.50;;
3587;SDS011;1808;53.596;9.972;2023-08-07T11:56:24;10.95;;;2.60;;
3587;SDS011;1808;53.596;9.972;2023-08-07T11:58:51;6.00;;;1.30;;
3587;SDS011;1808;53.596;9.972;2023-08-07T12:01:19;10.00;;;3.08;;
3587;SDS011;1808;53.596;9.972;2023-08-07T12:03:50;7.28;;;2.30;;
3587;SDS011;1808;53.596;9.972;2023-08-07T12:06:17;10.73;;;3.75;;
3587;SDS011;1808;53.596;9.972;2023-08-07T12:08:45;11.23;;;3.00;;
3587;SDS011;1808;53.596;9.972;2023-08-07T12:11:12;8.40;;;2.72;;
3587;SDS011;1808;53.596;9.972;2023-08-07T12:13:39;12.27;;;2.70;;
3587;SDS011;1808;53.596;9.972;2023-08-07T12:16:06;6.85;;;2.30;;
3587;SDS011;1808;53.596;9.972;2023-08-07T12:18:33;15.88;;;3.25;;
3587;SDS011;1808;53.596;9.972;2023-08-07T12:21:01;3.70;;;2.33;;
3587;SDS011;1808;53.596;9.972;2023-08-07T12:23:28;8.18;;;1.75;;
3587;SDS011;1808;53.596;9.972;2023-08-07T12:25:56;6.53;;;1.98;;
3587;SDS011;1808;53.596;9.972;2023-08-07T12:28:22;5.93;;;2.08;;
3587;SDS011;1808;53.596;9.972;2023-08-07T12:30:49;3.50;;;1.15;;
3587;SDS011;1808;53.596;9.972;2023-08-07T12:33:16;18.80;;;4.40;;
3587;SDS011;1808;53.596;9.972;2023-08-07T12:35:43;6.95;;;2.63;;
3587;SDS011;1808;53.596;9.972;2023-08-07T12:38:10;14.90;;;3.35;;
3587;SDS011;1808;53.596;9.972;2023-08-07T12:40:38;17.55;;;3.58;;
3587;SDS011;1808;53.596;9.972;2023-08-07T12:43:07;9.10;;;3.08;;
3587;SDS011;1808;53.596;9.972;2023-08-07T12:45:33;12.88;;;4.72;;
3587;SDS011;1808;53.596;9.972;2023-08-07T12:48:00;10.48;;;3.10;;
3587;SDS011;1808;53.596;9.972;2023-08-07T12:50:27;8.48;;;3.30;;
3587;SDS011;1808;53.596;9.972;2023-08-07T12:52:54;15.40;;;4.35;;
3587;SDS011;1808;53.596;9.972;2023-08-07T12:55:20;20.85;;;4.88;;
3587;SDS011;1808;53.596;9.972;2023-08-07T12:57:47;17.17;;;3.92;;
3587;SDS011;1808;53.596;9.972;2023-08-07T13:00:16;17.40;;;4.53;;
3587;SDS011;1808;53.596;9.972;2023-08-07T13:02:44;14.90;;;4.88;;
3587;SDS011;1808;53.596;9.972;2023-08-07T13:05:11;11.70;;;3.15;;
3587;SDS011;1808;53.596;9.972;2023-08-07T13:07:37;5.65;;;2.17;;
3587;SDS011;1808;53.596;9.972;2023-08-07T13:10:04;15.05;;;3.53;;
3587;SDS011;1808;53.596;9.972;2023-08-07T13:12:33;9.35;;;2.20;;
3587;SDS011;1808;53.596;9.972;2023-08-07T13:15:01;13.45;;;2.97;;
3587;SDS011;1808;53.596;9.972;2023-08-07T13:17:28;5.40;;;1.70;;
3587;SDS011;1808;53.596;9.972;2023-08-07T13:19:55;15.77;;;3.70;;
3587;SDS011;1808;53.596;9.972;2023-08-07T13:22:21;9.30;;;3.05;;
3587;SDS011;1808;53.596;9.972;2023-08-07T13:24:47;10.60;;;2.55;;
3587;SDS011;1808;53.596;9.972;2023-08-07T13:27:13;15.73;;;3.15;;
3587;SDS011;1808;53.596;9.972;2023-08-07T13:29:40;34.05;;;5.05;;
3587;SDS011;1808;53.596;9.972;2023-08-07T13:32:06;12.63;;;3.60;;
3587;SDS011;1808;53.596;9.972;2023-08-07T13:34:37;16.52;;;2.60;;
3587;SDS011;1808;53.596;9.972;2023-08-07T13:37:04;17.88;;;3.00;;
3587;SDS011;1808;53.596;9.972;2023-08-07T13:39:31;16.38;;;4.25;;
3587;SDS011;1808;53.596;9.972;2023-08-07T13:41:58;14.70;;;3.13;;
3587;SDS011;1808;53.596;9.972;2023-08-07T13:44:25;14.60;;;4.38;;
3587;SDS011;1808;53.596;9.972;2023-08-07T13:46:51;10.65;;;2.95;;
3587;SDS011;1808;53.596;9.972;2023-08-07T13:49:18;10.60;;;4.20;;
3587;SDS011;1808;53.596;9.972;2023-08-07T13:51:46;18.20;;;3.75;;
3587;SDS011;1808;53.596;9.972;2023-08-07T13:54:13;22.00;;;3.55;;
3587;SDS011;1808;53.596;9.972;2023-08-07T13:56:40;8.18;;;2.85;;
3587;SDS011;1808;53.596;9.972;2023-08-07T13:59:06;24.80;;;6.18;;
3587;SDS011;1808;53.596;9.972;2023-08-07T14:01:33;18.15;;;4.38;;
3587;SDS011;1808;53.596;9.972;2023-08-07T14:04:00;13.60;;;3.83;;
3587;SDS011;1808;53.596;9.972;2023-08-07T14:06:26;12.95;;;2.83;;
3587;SDS011;1808;53.596;9.972;2023-08-07T14:08:54;9.25;;;1.98;;
3587;SDS011;1808;53.596;9.972;2023-08-07T14:11:21;11.10;;;2.97;;
3587;SDS011;1808;53.596;9.972;2023-08-07T14:13:49;21.90;;;4.45;;
3587;SDS011;1808;53.596;9.972;2023-08-07T14:16:16;16.85;;;3.83;;
3587;SDS011;1808;53.596;9.972;2023-08-07T14:18:42;17.15;;;3.65;;
3587;SDS011;1808;53.596;9.972;2023-08-07T14:21:09;9.63;;;2.60;;
3587;SDS011;1808;53.596;9.972;2023-08-07T14:23:35;12.60;;;3.72;;
3587;SDS011;1808;53.596;9.972;2023-08-07T14:26:03;16.50;;;4.70;;
3587;SDS011;1808;53.596;9.972;2023-08-07T14:28:30;18.38;;;4.10;;
3587;SDS011;1808;53.596;9.972;2023-08-07T14:30:57;12.63;;;3.20;;
3587;SDS011;1808;53.596;9.972;2023-08-07T14:33:23;13.50;;;3.25;;
3587;SDS011;1808;53.596;9.972;2023-08-07T14:35:50;19.20;;;5.32;;
3587;SDS011;1808;53.596;9.972;2023-08-07T14:38:16;21.75;;;4.95;;
3587;SDS011;1808;53.596;9.972;2023-08-07T14:40:43;11.10;;;3.97;;
3587;SDS011;1808;53.596;9.972;2023-08-07T14:43:10;26.70;;;5.57;;
3587;SDS011;1808;53.596;9.972;2023-08-07T14:45:37;18.27;;;4.07;;
3587;SDS011;1808;53.596;9.972;2023-08-07T14:48:04;6.60;;;1.73;;
3587;SDS011;1808;53.596;9.972;2023-08-07T14:50:31;21.10;;;5.50;;
3587;SDS011;1808;53.596;9.972;2023-08-07T14:52:58;21.45;;;4.55;;
3587;SDS011;1808;53.596;9.972;2023-08-07T14:55:24;13.85;;;3.40;;
3587;SDS011;1808;53.596;9.972;2023-08-07T14:57:51;19.70;;;4.93;;
3587;SDS011;1808;53.596;9.972;2023-08-07T15:00:19;19.40;;;4.53;;
3587;SDS011;1808;53.596;9.972;2023-08-07T15:02:45;9.52;;;3.85;;
3587;SDS011;1808;53.596;9.972;2023-08-07T15:05:13;32.22;;;5.50;;
3587;SDS011;1808;53.596;9.972;2023-08-07T15:07:39;23.17;;;5.97;;
3587;SDS011;1808;53.596;9.972;2023-08-07T15:10:07;21.50;;;4.70;;
3587;SDS011;1808;53.596;9.972;2023-08-07T15:12:34;15.90;;;4.72;;